createdAt,value
2023-04-08T00:01:31.571Z,7.55
2023-04-08T00:04:00.084Z,7.56
2023-04-08T00:06:28.475Z,7.55
2023-04-08T00:08:56.726Z,7.10
2023-04-08T00:11:25.282Z,7.13
2023-04-08T00:13:53.691Z,6.97
2023-04-08T00:16:22.825Z,6.67
2023-04-08T00:18:52.875Z,6.84
2023-04-08T00:21:21.549Z,6.74
2023-04-08T00:23:49.735Z,7.04
2023-04-08T00:26:18.106Z,7.12
2023-04-08T00:28:46.994Z,7.12
2023-04-08T00:31:15.741Z,7.12
2023-04-08T00:33:44.043Z,7.14
2023-04-08T00:36:13.745Z,7.15
2023-04-08T00:38:42.027Z,7.14
2023-04-08T00:41:10.269Z,6.28
2023-04-08T00:43:38.534Z,6.67
2023-04-08T00:46:07.119Z,6.66
2023-04-08T00:48:35.718Z,6.77
2023-04-08T00:51:04.622Z,6.68
2023-04-08T00:53:34.385Z,6.92
2023-04-08T00:56:02.662Z,7.26
2023-04-08T00:58:31.343Z,7.29
2023-04-08T01:01:04.838Z,7.12
2023-04-08T01:03:51.891Z,7.12
2023-04-08T01:06:27.206Z,7.22
2023-04-08T01:08:59.685Z,6.73
2023-04-08T01:11:31.300Z,6.59
2023-04-08T01:14:01.124Z,6.07
2023-04-08T01:16:30.428Z,5.77
2023-04-08T01:18:58.977Z,5.71
2023-04-08T01:21:29.143Z,5.31
2023-04-08T01:24:07.871Z,5.90
2023-04-08T01:26:38.465Z,6.29
2023-04-08T01:29:09.263Z,6.61
2023-04-08T01:31:38.388Z,6.96
2023-04-08T01:34:07.726Z,6.30
2023-04-08T01:36:38.550Z,6.60
2023-04-08T01:39:08.039Z,6.75
2023-04-08T01:41:38.705Z,6.83
2023-04-08T01:44:07.967Z,6.99
2023-04-08T01:46:37.344Z,6.87
2023-04-08T01:49:07.836Z,6.45
2023-04-08T01:51:38.749Z,6.73
2023-04-08T01:54:07.269Z,6.54
2023-04-08T01:56:42.897Z,6.27
2023-04-08T01:59:15.794Z,6.61
2023-04-08T02:01:46.511Z,6.77
2023-04-08T02:04:15.114Z,6.85
2023-04-08T02:06:43.962Z,6.92
2023-04-08T02:09:12.451Z,7.19
2023-04-08T02:11:42.079Z,7.07
2023-04-08T02:14:10.446Z,7.18
2023-04-08T02:16:44.327Z,6.90
2023-04-08T02:19:17.001Z,7.24
2023-04-08T02:21:50.362Z,7.23
2023-04-08T02:24:19.562Z,7.40
2023-04-08T02:26:52.064Z,7.31
2023-04-08T02:29:20.715Z,7.46
2023-04-08T02:31:51.465Z,7.49
2023-04-08T02:34:22.997Z,7.47
2023-04-08T02:36:51.825Z,7.63
2023-04-08T02:39:20.159Z,7.65
2023-04-08T02:41:49.899Z,7.29
2023-04-08T02:44:18.218Z,7.40
2023-04-08T02:46:46.505Z,7.41
2023-04-08T02:49:14.740Z,7.61
2023-04-08T02:51:43.003Z,7.34
2023-04-08T02:54:11.241Z,7.59
2023-04-08T02:56:39.618Z,7.65
2023-04-08T02:59:09.344Z,7.63
2023-04-08T03:01:37.870Z,7.29
2023-04-08T03:04:06.777Z,6.85
2023-04-08T03:06:35.044Z,6.69
2023-04-08T03:09:03.384Z,7.14
2023-04-08T03:11:31.686Z,7.26
2023-04-08T03:14:00.120Z,7.30
2023-04-08T03:16:29.841Z,7.34
2023-04-08T03:18:58.066Z,6.92
2023-04-08T03:21:27.181Z,7.19
2023-04-08T03:23:55.456Z,7.15
2023-04-08T03:26:23.712Z,7.30
2023-04-08T03:28:53.775Z,7.41
2023-04-08T03:31:22.366Z,7.56
2023-04-08T03:33:52.020Z,7.48
2023-04-08T03:36:22.112Z,7.57
2023-04-08T03:38:50.651Z,7.68
2023-04-08T03:41:19.146Z,7.53
2023-04-08T03:43:47.528Z,7.53
2023-04-08T03:46:15.852Z,7.77
2023-04-08T03:48:44.187Z,7.58
2023-04-08T03:51:13.931Z,7.64
2023-04-08T03:53:42.143Z,7.43
2023-04-08T03:56:10.539Z,6.61
2023-04-08T03:58:38.869Z,6.62
2023-04-08T04:01:07.130Z,7.42
2023-04-08T04:03:36.018Z,7.27
2023-04-08T04:06:04.438Z,7.44
2023-04-08T04:08:34.190Z,7.82
2023-04-08T04:11:02.475Z,8.15
2023-04-08T04:13:30.712Z,8.11
2023-04-08T04:15:59.083Z,8.03
2023-04-08T04:18:27.576Z,7.89
2023-04-08T04:20:55.939Z,7.98
2023-04-08T04:23:25.870Z,7.75
2023-04-08T04:25:55.683Z,7.73
2023-04-08T04:28:24.017Z,7.83
2023-04-08T04:30:53.319Z,7.48
2023-04-08T04:33:22.369Z,7.63
2023-04-08T04:35:50.803Z,7.53
2023-04-08T04:38:19.162Z,7.76
2023-04-08T04:40:47.423Z,7.98
2023-04-08T04:43:17.094Z,7.80
2023-04-08T04:45:45.497Z,7.78
2023-04-08T04:48:13.840Z,8.00
2023-04-08T04:50:42.208Z,7.98
2023-04-08T04:53:10.691Z,7.27
2023-04-08T04:55:39.374Z,6.37
2023-04-08T04:58:07.737Z,7.57
2023-04-08T05:00:37.398Z,7.76
2023-04-08T05:03:06.101Z,7.84
2023-04-08T05:05:34.507Z,7.79
2023-04-08T05:08:02.859Z,7.98
2023-04-08T05:10:31.307Z,8.01
2023-04-08T05:12:59.647Z,7.90
2023-04-08T05:15:27.993Z,7.74
2023-04-08T05:17:57.692Z,7.91
2023-04-08T05:20:26.159Z,8.18
2023-04-08T05:22:54.531Z,7.87
2023-04-08T05:25:22.849Z,7.35
2023-04-08T05:27:51.428Z,6.70
2023-04-08T05:30:20.015Z,6.74
2023-04-08T05:32:48.315Z,7.18
2023-04-08T05:35:18.086Z,7.02
2023-04-08T05:37:46.481Z,7.02
2023-04-08T05:40:14.889Z,7.29
2023-04-08T05:42:43.686Z,7.41
2023-04-08T05:45:12.616Z,6.92
2023-04-08T05:47:43.776Z,7.13
2023-04-08T05:50:12.937Z,7.17
2023-04-08T05:52:45.964Z,7.34
2023-04-08T05:55:15.326Z,7.09
2023-04-08T05:57:43.643Z,6.82
2023-04-08T06:00:12.693Z,6.88
2023-04-08T06:02:41.220Z,7.52
2023-04-08T06:05:10.561Z,7.38
2023-04-08T06:07:38.863Z,7.78
2023-04-08T06:10:09.864Z,8.04
2023-04-08T06:12:39.646Z,7.82
2023-04-08T06:15:09.646Z,7.99
2023-04-08T06:17:39.133Z,9.02
2023-04-08T06:20:09.518Z,9.35
2023-04-08T06:22:38.066Z,10.22
2023-04-08T06:25:07.231Z,10.42
2023-04-08T06:27:36.976Z,10.26
2023-04-08T06:30:07.328Z,11.04
2023-04-08T06:32:35.783Z,10.88
2023-04-08T06:35:04.149Z,11.44
2023-04-08T06:37:34.727Z,12.15
2023-04-08T06:40:03.171Z,11.83
2023-04-08T06:42:31.749Z,11.71
2023-04-08T06:45:01.474Z,12.10
2023-04-08T06:47:29.888Z,11.99
2023-04-08T06:49:58.422Z,12.29
2023-04-08T06:52:26.666Z,13.15
2023-04-08T06:54:54.900Z,13.01
2023-04-08T06:57:23.217Z,12.68
2023-04-08T06:59:51.427Z,12.57
2023-04-08T07:02:22.928Z,11.53
2023-04-08T07:04:51.320Z,12.49
2023-04-08T07:07:19.588Z,13.36
2023-04-08T07:09:47.913Z,13.70
2023-04-08T07:12:16.113Z,14.28
2023-04-08T07:14:44.550Z,14.21
2023-04-08T07:17:12.919Z,13.60
2023-04-08T07:19:44.260Z,14.02
2023-04-08T07:22:12.629Z,14.75
2023-04-08T07:24:43.017Z,14.44
2023-04-08T07:27:11.360Z,15.23
2023-04-08T07:29:39.687Z,14.40
2023-04-08T07:32:08.641Z,14.23
2023-04-08T07:34:37.111Z,14.49
2023-04-08T07:37:06.813Z,14.76
2023-04-08T07:39:35.131Z,15.08
2023-04-08T07:42:03.492Z,14.42
2023-04-08T07:44:31.776Z,15.41
2023-04-08T07:47:00.109Z,15.75
2023-04-08T07:49:28.426Z,14.14
2023-04-08T07:51:57.714Z,14.77
2023-04-08T07:54:34.425Z,15.18
2023-04-08T07:57:02.923Z,17.14
2023-04-08T07:59:31.364Z,17.58
2023-04-08T08:01:59.707Z,16.85
2023-04-08T08:04:28.382Z,16.61
2023-04-08T08:06:56.906Z,16.68
2023-04-08T08:09:25.443Z,16.73
2023-04-08T08:11:55.242Z,16.09
2023-04-08T08:14:23.557Z,15.63
2023-04-08T08:16:52.809Z,14.72
2023-04-08T08:19:39.361Z,15.77
2023-04-08T08:22:07.596Z,14.70
2023-04-08T08:24:35.915Z,15.04
2023-04-08T08:27:06.627Z,15.06
2023-04-08T08:29:34.996Z,15.41
2023-04-08T08:32:03.887Z,15.38
2023-04-08T08:34:32.482Z,15.79
2023-04-08T08:37:00.815Z,15.27
2023-04-08T08:39:29.084Z,15.43
2023-04-08T08:41:57.396Z,15.42
2023-04-08T08:44:27.265Z,15.17
2023-04-08T08:46:55.696Z,15.53
2023-04-08T08:49:24.284Z,15.40
2023-04-08T08:51:56.197Z,15.50
2023-04-08T08:54:24.537Z,16.29
2023-04-08T08:56:53.201Z,15.19
2023-04-08T08:59:21.530Z,14.74
2023-04-08T09:01:51.438Z,15.13
2023-04-08T09:04:22.625Z,15.53
2023-04-08T09:06:52.737Z,15.89
2023-04-08T09:09:21.333Z,15.82
2023-04-08T09:11:49.778Z,15.71
2023-04-08T09:14:22.530Z,15.76
2023-04-08T09:16:53.020Z,15.77
2023-04-08T09:19:21.468Z,15.64
2023-04-08T09:22:07.068Z,16.38
2023-04-08T09:24:35.806Z,17.61
2023-04-08T09:27:04.414Z,18.20
2023-04-08T09:29:35.808Z,19.03
2023-04-08T09:32:07.116Z,18.79
2023-04-08T09:34:35.419Z,20.39
2023-04-08T09:37:03.640Z,20.66
2023-04-08T09:39:32.574Z,21.27
2023-04-08T09:42:04.258Z,22.26
2023-04-08T09:44:34.725Z,21.16
2023-04-08T09:47:10.335Z,20.70
2023-04-08T09:49:43.570Z,20.09
2023-04-08T09:52:15.900Z,18.81
2023-04-08T09:54:54.413Z,18.19
2023-04-08T09:57:28.901Z,17.30
2023-04-08T10:00:02.202Z,16.70
2023-04-08T10:02:42.512Z,17.21
2023-04-08T10:05:14.677Z,17.79
2023-04-08T10:07:43.665Z,17.65
2023-04-08T10:10:12.677Z,17.40
2023-04-08T10:12:41.518Z,16.67
2023-04-08T10:15:27.802Z,16.95
2023-04-08T10:18:19.352Z,16.80
2023-04-08T10:20:49.398Z,17.10
2023-04-08T10:23:18.864Z,16.88
2023-04-08T10:25:48.622Z,17.15
2023-04-08T10:28:27.320Z,18.24
2023-04-08T10:30:57.626Z,18.66
2023-04-08T10:33:38.494Z,19.00
2023-04-08T10:36:13.587Z,17.87
2023-04-08T10:38:42.851Z,17.46
2023-04-08T10:41:14.361Z,18.29
2023-04-08T10:43:42.890Z,17.40
2023-04-08T10:46:12.953Z,17.04
2023-04-08T10:48:42.723Z,16.81
2023-04-08T10:51:11.577Z,17.53
2023-04-08T10:53:41.340Z,17.91
2023-04-08T10:56:13.257Z,19.10
2023-04-08T10:58:50.322Z,19.60
2023-04-08T11:01:19.306Z,20.42
2023-04-08T11:03:49.206Z,20.61
2023-04-08T11:06:19.568Z,20.48
2023-04-08T11:08:47.909Z,18.92
2023-04-08T11:11:16.473Z,18.93
2023-04-08T11:13:53.301Z,19.10
2023-04-08T11:16:23.683Z,18.97
2023-04-08T11:18:54.677Z,19.35
2023-04-08T11:21:25.723Z,19.08
2023-04-08T11:23:55.300Z,19.47
2023-04-08T11:26:24.203Z,18.68
2023-04-08T11:28:53.568Z,17.89
2023-04-08T11:31:24.891Z,18.05
2023-04-08T11:33:56.932Z,17.40
2023-04-08T11:36:26.185Z,17.74
2023-04-08T11:38:56.462Z,17.99
2023-04-08T11:41:24.857Z,17.68
2023-04-08T11:43:54.478Z,17.12
2023-04-08T11:46:23.215Z,17.04
2023-04-08T11:49:03.538Z,17.13
2023-04-08T11:51:31.866Z,16.83
2023-04-08T11:54:00.263Z,17.23
2023-04-08T11:56:30.730Z,17.75
2023-04-08T11:58:59.087Z,17.81
2023-04-08T12:01:28.368Z,17.39
2023-04-08T12:04:01.497Z,17.82
2023-04-08T12:06:31.900Z,17.53
2023-04-08T12:09:00.192Z,16.90
2023-04-08T12:11:28.566Z,17.06
2023-04-08T12:13:57.432Z,16.92
2023-04-08T12:16:25.804Z,16.99
2023-04-08T12:18:54.251Z,17.03
2023-04-08T12:21:24.942Z,17.47
2023-04-08T12:23:54.634Z,17.73
2023-04-08T12:26:22.956Z,17.71
2023-04-08T12:28:51.276Z,17.29
2023-04-08T12:31:19.719Z,17.00
2023-04-08T12:33:48.203Z,16.95
2023-04-08T12:36:17.428Z,17.11
2023-04-08T12:38:46.054Z,16.09
2023-04-08T12:41:15.766Z,15.41
2023-04-08T12:43:44.051Z,15.40
2023-04-08T12:46:12.964Z,15.50
2023-04-08T12:48:41.285Z,15.89
2023-04-08T12:51:10.547Z,16.22
2023-04-08T12:53:38.905Z,16.13
2023-04-08T12:56:08.095Z,16.34
2023-04-08T12:58:37.792Z,15.11
2023-04-08T13:01:06.454Z,14.99
2023-04-08T13:03:36.325Z,15.01
2023-04-08T13:06:04.858Z,14.64
2023-04-08T13:08:33.170Z,14.81
2023-04-08T13:11:01.509Z,15.41
2023-04-08T13:13:30.403Z,15.65
2023-04-08T13:16:00.422Z,10.90
2023-04-08T13:18:28.837Z,14.39
2023-04-08T13:20:58.258Z,14.76
2023-04-08T13:23:26.613Z,14.97
2023-04-08T13:25:54.929Z,14.40
2023-04-08T13:28:23.287Z,13.28
2023-04-08T13:30:51.970Z,12.77
2023-04-08T13:33:22.355Z,12.88
2023-04-08T13:35:50.789Z,13.12
2023-04-08T13:38:19.256Z,12.43
2023-04-08T13:40:49.142Z,12.92
2023-04-08T13:43:17.614Z,13.21
2023-04-08T13:45:46.411Z,13.64
2023-04-08T13:48:14.957Z,13.87
2023-04-08T13:50:44.718Z,13.93
2023-04-08T13:53:13.001Z,13.50
2023-04-08T13:55:41.352Z,13.48
2023-04-08T13:58:21.077Z,13.70
2023-04-08T14:00:52.662Z,13.16
2023-04-08T14:03:21.083Z,13.25
2023-04-08T14:05:51.551Z,12.86
2023-04-08T14:08:25.452Z,12.80
2023-04-08T14:10:54.235Z,12.67
2023-04-08T14:13:22.686Z,11.80
2023-04-08T14:15:52.365Z,12.22
2023-04-08T14:18:20.904Z,12.32
2023-04-08T14:20:50.630Z,12.47
2023-04-08T14:23:18.931Z,12.49
2023-04-08T14:25:47.272Z,12.55
2023-04-08T14:28:15.732Z,12.27
2023-04-08T14:30:44.113Z,12.60
2023-04-08T14:33:12.664Z,12.44
2023-04-08T14:35:41.034Z,12.30
2023-04-08T14:38:10.750Z,12.21
2023-04-08T14:40:39.099Z,11.90
2023-04-08T14:43:07.615Z,11.96
2023-04-08T14:45:35.924Z,11.99
2023-04-08T14:48:04.293Z,11.88
2023-04-08T14:50:32.669Z,11.96
2023-04-08T14:53:01.291Z,11.97
2023-04-08T14:55:32.550Z,12.10
2023-04-08T14:58:01.297Z,11.68
2023-04-08T15:00:29.818Z,11.61
2023-04-08T15:02:58.165Z,11.19
2023-04-08T15:05:26.735Z,10.79
2023-04-08T15:07:55.590Z,11.72
2023-04-08T15:10:23.979Z,11.96
2023-04-08T15:12:53.701Z,11.82
2023-04-08T15:15:22.057Z,11.98
2023-04-08T15:17:52.103Z,12.16
2023-04-08T15:20:20.884Z,11.91
2023-04-08T15:22:49.264Z,11.79
2023-04-08T15:25:17.669Z,11.32
2023-04-08T15:27:45.994Z,11.31
2023-04-08T15:30:17.318Z,11.31
2023-04-08T15:32:45.920Z,11.59
2023-04-08T15:35:14.210Z,11.45
2023-04-08T15:37:42.515Z,11.48
2023-04-08T15:40:11.537Z,11.23
2023-04-08T15:42:39.795Z,11.52
2023-04-08T15:45:09.029Z,11.31
2023-04-08T15:47:38.881Z,11.16
2023-04-08T15:50:08.366Z,11.38
2023-04-08T15:52:36.731Z,11.38
2023-04-08T15:55:05.381Z,11.42
2023-04-08T15:57:33.747Z,11.59
2023-04-08T16:00:02.145Z,11.20
2023-04-08T16:02:30.633Z,11.53
2023-04-08T16:05:01.033Z,11.51
2023-04-08T16:07:29.360Z,11.75
2023-04-08T16:09:57.626Z,11.46
2023-04-08T16:12:26.205Z,11.48
2023-04-08T16:14:54.599Z,11.67
2023-04-08T16:17:23.318Z,11.41
2023-04-08T16:19:53.232Z,11.50
2023-04-08T16:22:23.005Z,10.89
2023-04-08T16:24:53.229Z,11.15
2023-04-08T16:27:21.575Z,11.08
2023-04-08T16:29:49.888Z,11.00
2023-04-08T16:32:18.254Z,11.40
2023-04-08T16:34:46.901Z,11.64
2023-04-08T16:37:15.320Z,11.86
2023-04-08T16:39:45.042Z,11.94
2023-04-08T16:42:13.303Z,12.05
2023-04-08T16:44:42.043Z,11.75
2023-04-08T16:47:10.437Z,12.11
2023-04-08T16:49:38.789Z,12.05
2023-04-08T16:52:09.704Z,12.08
2023-04-08T16:54:38.128Z,11.67
2023-04-08T16:57:08.214Z,12.00
2023-04-08T16:59:36.524Z,12.01
2023-04-08T17:02:05.100Z,11.96
2023-04-08T17:04:33.633Z,11.76
2023-04-08T17:07:01.965Z,11.56
2023-04-08T17:09:31.232Z,11.05
2023-04-08T17:11:59.628Z,10.95
2023-04-08T17:14:29.594Z,11.30
2023-04-08T17:16:57.937Z,11.21
2023-04-08T17:19:26.314Z,11.28
2023-04-08T17:21:54.612Z,11.02
2023-04-08T17:24:23.020Z,10.58
2023-04-08T17:26:51.407Z,10.56
2023-04-08T17:29:19.731Z,10.46
2023-04-08T17:31:49.623Z,10.57
2023-04-08T17:34:18.187Z,11.12
2023-04-08T17:36:46.424Z,11.23
2023-04-08T17:39:14.975Z,10.75
2023-04-08T17:41:44.697Z,10.79
2023-04-08T17:44:14.181Z,11.19
2023-04-08T17:46:42.762Z,11.13
2023-04-08T17:49:16.284Z,11.10
2023-04-08T17:51:44.606Z,11.06
2023-04-08T17:54:13.056Z,11.04
2023-04-08T17:56:43.371Z,10.77
2023-04-08T17:59:12.947Z,10.73
2023-04-08T18:01:41.427Z,10.03
2023-04-08T18:04:12.672Z,10.25
2023-04-08T18:06:41.366Z,9.87
2023-04-08T18:09:09.639Z,10.25
2023-04-08T18:11:37.973Z,9.91
2023-04-08T18:14:07.039Z,9.79
2023-04-08T18:16:35.414Z,10.33
2023-04-08T18:19:03.640Z,10.65
2023-04-08T18:21:33.879Z,10.14
2023-04-08T18:24:02.184Z,10.07
2023-04-08T18:26:31.498Z,9.93
2023-04-08T18:28:59.940Z,9.83
2023-04-08T18:31:28.203Z,9.82
2023-04-08T18:33:56.994Z,9.75
2023-04-08T18:36:26.647Z,9.90
2023-04-08T18:38:56.541Z,9.56
2023-04-08T18:41:25.237Z,9.86
2023-04-08T18:43:53.751Z,10.31
2023-04-08T18:46:23.057Z,10.07
2023-04-08T18:48:51.463Z,10.75
2023-04-08T18:51:20.141Z,10.94
2023-04-08T18:53:48.675Z,10.64
2023-04-08T18:56:20.226Z,10.44
2023-04-08T18:58:48.810Z,10.77
2023-04-08T19:01:17.606Z,10.85
2023-04-08T19:03:46.105Z,10.99
2023-04-08T19:06:17.405Z,10.83
2023-04-08T19:08:48.255Z,11.12
2023-04-08T19:11:18.453Z,11.16
2023-04-08T19:13:47.122Z,11.26
2023-04-08T19:16:15.748Z,11.34
2023-04-08T19:18:44.133Z,11.41
2023-04-08T19:21:12.882Z,11.21
2023-04-08T19:23:41.531Z,11.21
2023-04-08T19:26:13.405Z,10.77
2023-04-08T19:28:44.733Z,11.01
2023-04-08T19:31:20.274Z,11.14
2023-04-08T19:33:53.797Z,11.05
2023-04-08T19:36:22.190Z,11.05
2023-04-08T19:38:50.522Z,11.03
2023-04-08T19:41:18.814Z,11.01
2023-04-08T19:43:48.606Z,10.97
2023-04-08T19:46:17.169Z,10.93
2023-04-08T19:48:45.653Z,10.92
2023-04-08T19:51:20.350Z,10.82
2023-04-08T19:53:49.868Z,10.98
2023-04-08T19:56:18.403Z,10.95
2023-04-08T19:58:46.690Z,10.85
2023-04-08T20:01:16.958Z,10.92
2023-04-08T20:03:50.400Z,10.19
2023-04-08T20:06:19.337Z,10.48
2023-04-08T20:08:50.193Z,10.57
2023-04-08T20:11:18.878Z,10.65
2023-04-08T20:13:47.822Z,10.46
2023-04-08T20:16:21.261Z,10.65
2023-04-08T20:18:49.838Z,10.67
2023-04-08T20:21:18.406Z,10.69
2023-04-08T20:23:46.740Z,10.64
2023-04-08T20:26:17.820Z,10.14
2023-04-08T20:28:46.358Z,10.71
2023-04-08T20:31:14.935Z,10.66
2023-04-08T20:33:45.678Z,10.71
2023-04-08T20:36:14.208Z,10.42
2023-04-08T20:38:42.862Z,10.49
2023-04-08T20:41:11.507Z,10.68
2023-04-08T20:43:40.544Z,10.73
2023-04-08T20:46:09.328Z,10.69
2023-04-08T20:48:37.635Z,10.70
2023-04-08T20:51:07.231Z,10.36
2023-04-08T20:53:35.756Z,10.64
2023-04-08T20:56:04.941Z,10.65
2023-04-08T20:58:33.228Z,10.32
2023-04-08T21:01:01.729Z,10.67
2023-04-08T21:03:30.312Z,10.66
2023-04-08T21:05:58.788Z,10.61
2023-04-08T21:08:28.540Z,10.52
2023-04-08T21:10:56.774Z,10.39
2023-04-08T21:13:25.116Z,10.27
2023-04-08T21:15:53.393Z,10.36
2023-04-08T21:18:21.618Z,10.04
2023-04-08T21:20:50.282Z,10.41
2023-04-08T21:23:24.078Z,10.35
2023-04-08T21:25:53.826Z,10.24
2023-04-08T21:28:22.143Z,10.07
2023-04-08T21:30:50.570Z,10.00
2023-04-08T21:33:18.897Z,9.23
2023-04-08T21:35:47.210Z,8.82
2023-04-08T21:38:16.242Z,9.14
2023-04-08T21:40:44.525Z,9.33
2023-04-08T21:43:14.302Z,9.21
2023-04-08T21:45:42.611Z,9.41
2023-04-08T21:48:10.900Z,9.10
2023-04-08T21:50:39.734Z,9.26
2023-04-08T21:53:08.075Z,9.41
2023-04-08T21:55:36.333Z,9.05
2023-04-08T21:58:04.610Z,8.82
2023-04-08T22:00:34.368Z,8.83
2023-04-08T22:03:02.880Z,8.66
2023-04-08T22:05:33.063Z,8.28
2023-04-08T22:08:02.237Z,8.46
2023-04-08T22:10:30.628Z,8.54
2023-04-08T22:12:58.919Z,8.79
2023-04-08T22:15:27.167Z,8.91
2023-04-08T22:17:57.416Z,8.84
2023-04-08T22:20:26.000Z,8.84
2023-04-08T22:22:54.283Z,9.18
2023-04-08T22:25:22.542Z,8.91
2023-04-08T22:27:50.752Z,8.73
2023-04-08T22:30:19.103Z,8.91
2023-04-08T22:32:47.364Z,9.09
2023-04-08T22:35:17.312Z,9.12
2023-04-08T22:37:45.691Z,9.00
2023-04-08T22:40:14.253Z,9.08
2023-04-08T22:42:42.447Z,8.73
2023-04-08T22:45:11.530Z,9.11
2023-04-08T22:47:39.736Z,8.76
2023-04-08T22:50:08.902Z,9.04
2023-04-08T22:52:38.582Z,9.00
2023-04-08T22:55:07.746Z,9.01
2023-04-08T22:57:36.075Z,8.91
2023-04-08T23:00:06.094Z,8.45
2023-04-08T23:02:35.116Z,8.87
2023-04-08T23:05:03.439Z,8.59
2023-04-08T23:07:31.776Z,8.29
2023-04-08T23:10:01.547Z,8.19
2023-04-08T23:12:29.791Z,8.06
2023-04-08T23:14:58.226Z,8.31
2023-04-08T23:17:26.543Z,7.89
2023-04-08T23:19:54.819Z,8.67
2023-04-08T23:22:23.232Z,8.06
2023-04-08T23:24:51.482Z,8.41
2023-04-08T23:27:21.164Z,8.48
2023-04-08T23:29:49.396Z,8.22
2023-04-08T23:32:17.788Z,8.33
2023-04-08T23:34:46.175Z,8.37
2023-04-08T23:37:14.458Z,8.14
2023-04-08T23:39:42.676Z,8.08
2023-04-08T23:42:11.063Z,8.15
2023-04-08T23:44:40.760Z,8.33
2023-04-08T23:47:09.041Z,8.37
2023-04-08T23:49:37.313Z,8.29
2023-04-08T23:52:06.323Z,8.29
2023-04-08T23:54:34.605Z,8.19
2023-04-08T23:57:02.877Z,8.20
2023-04-08T23:59:31.192Z,8.30
